sensor_id;sensor_type;location;lat;lon;timestamp;P1;durP1;ratioP1;P2;durP2;ratioP2
48285;SDS011;34102;47.716;10.296;2023-05-20T00:01:00;14.20;;;11.02;;
48285;SDS011;34102;47.716;10.296;2023-05-20T00:03:25;12.35;;;10.00;;
48285;SDS011;34102;47.716;10.296;2023-05-20T00:05:50;14.10;;;10.43;;
48285;SDS011;34102;47.716;10.296;2023-05-20T00:08:17;12.45;;;9.50;;
48285;SDS011;34102;47.716;10.296;2023-05-20T00:10:42;14.20;;;11.10;;
48285;SDS011;34102;47.716;10.296;2023-05-20T00:13:08;12.93;;;10.35;;
48285;SDS011;34102;47.716;10.296;2023-05-20T00:15:33;15.13;;;11.05;;
48285;SDS011;34102;47.716;10.296;2023-05-20T00:18:00;12.35;;;9.88;;
48285;SDS011;34102;47.716;10.296;2023-05-20T00:20:25;11.68;;;9.70;;
48285;SDS011;34102;47.716;10.296;2023-05-20T00:22:51;13.43;;;9.77;;
48285;SDS011;34102;47.716;10.296;2023-05-20T00:25:16;16.70;;;10.80;;
48285;SDS011;34102;47.716;10.296;2023-05-20T00:27:41;12.57;;;10.23;;
48285;SDS011;34102;47.716;10.296;2023-05-20T00:30:07;15.95;;;10.75;;
48285;SDS011;34102;47.716;10.296;2023-05-20T00:32:33;14.57;;;11.43;;
48285;SDS011;34102;47.716;10.296;2023-05-20T00:34:59;16.20;;;11.95;;
48285;SDS011;34102;47.716;10.296;2023-05-20T00:37:24;15.77;;;10.55;;
48285;SDS011;34102;47.716;10.296;2023-05-20T00:39:50;14.95;;;10.68;;
48285;SDS011;34102;47.716;10.296;2023-05-20T00:42:19;13.25;;;10.40;;
48285;SDS011;34102;47.716;10.296;2023-05-20T00:44:45;14.10;;;10.77;;
48285;SDS011;34102;47.716;10.296;2023-05-20T00:47:10;16.58;;;11.05;;
48285;SDS011;34102;47.716;10.296;2023-05-20T00:49:36;14.80;;;11.07;;
48285;SDS011;34102;47.716;10.296;2023-05-20T00:52:01;14.55;;;11.20;;
48285;SDS011;34102;47.716;10.296;2023-05-20T00:54:27;12.13;;;10.40;;
48285;SDS011;34102;47.716;10.296;2023-05-20T00:56:52;13.13;;;10.75;;
48285;SDS011;34102;47.716;10.296;2023-05-20T00:59:17;13.13;;;10.25;;
48285;SDS011;34102;47.716;10.296;2023-05-20T01:01:43;15.05;;;10.85;;
48285;SDS011;34102;47.716;10.296;2023-05-20T01:04:08;16.17;;;10.85;;
48285;SDS011;34102;47.716;10.296;2023-05-20T01:06:34;14.48;;;10.63;;
48285;SDS011;34102;47.716;10.296;2023-05-20T01:09:02;14.18;;;10.45;;
48285;SDS011;34102;47.716;10.296;2023-05-20T01:11:28;13.80;;;11.18;;
48285;SDS011;34102;47.716;10.296;2023-05-20T01:13:57;17.95;;;10.98;;
48285;SDS011;34102;47.716;10.296;2023-05-20T01:16:25;14.15;;;11.10;;
48285;SDS011;34102;47.716;10.296;2023-05-20T01:18:52;14.45;;;12.10;;
48285;SDS011;34102;47.716;10.296;2023-05-20T01:21:19;16.88;;;11.55;;
48285;SDS011;34102;47.716;10.296;2023-05-20T01:23:46;16.08;;;10.95;;
48285;SDS011;34102;47.716;10.296;2023-05-20T01:26:12;13.05;;;10.93;;
48285;SDS011;34102;47.716;10.296;2023-05-20T01:28:39;14.57;;;11.95;;
48285;SDS011;34102;47.716;10.296;2023-05-20T01:31:06;13.32;;;10.70;;
48285;SDS011;34102;47.716;10.296;2023-05-20T01:33:33;14.70;;;10.60;;
48285;SDS011;34102;47.716;10.296;2023-05-20T01:36:00;14.80;;;10.80;;
48285;SDS011;34102;47.716;10.296;2023-05-20T01:38:25;15.57;;;11.73;;
48285;SDS011;34102;47.716;10.296;2023-05-20T01:40:51;15.02;;;11.05;;
48285;SDS011;34102;47.716;10.296;2023-05-20T01:43:17;14.23;;;11.13;;
48285;SDS011;34102;47.716;10.296;2023-05-20T01:45:43;15.38;;;11.80;;
48285;SDS011;34102;47.716;10.296;2023-05-20T01:48:09;17.05;;;11.50;;
48285;SDS011;34102;47.716;10.296;2023-05-20T01:50:35;14.75;;;11.57;;
48285;SDS011;34102;47.716;10.296;2023-05-20T01:53:01;15.93;;;11.57;;
48285;SDS011;34102;47.716;10.296;2023-05-20T01:55:26;15.82;;;11.85;;
48285;SDS011;34102;47.716;10.296;2023-05-20T01:57:52;12.85;;;10.90;;
48285;SDS011;34102;47.716;10.296;2023-05-20T02:00:18;14.15;;;12.13;;
48285;SDS011;34102;47.716;10.296;2023-05-20T02:02:43;19.23;;;12.13;;
48285;SDS011;34102;47.716;10.296;2023-05-20T02:05:10;15.68;;;11.07;;
48285;SDS011;34102;47.716;10.296;2023-05-20T02:07:36;14.35;;;11.05;;
48285;SDS011;34102;47.716;10.296;2023-05-20T02:10:01;16.45;;;11.13;;
48285;SDS011;34102;47.716;10.296;2023-05-20T02:12:27;19.92;;;11.95;;
48285;SDS011;34102;47.716;10.296;2023-05-20T02:14:52;15.35;;;11.38;;
48285;SDS011;34102;47.716;10.296;2023-05-20T02:17:19;17.42;;;11.07;;
48285;SDS011;34102;47.716;10.296;2023-05-20T02:19:44;13.20;;;11.30;;
48285;SDS011;34102;47.716;10.296;2023-05-20T02:22:10;12.95;;;10.63;;
48285;SDS011;34102;47.716;10.296;2023-05-20T02:24:35;14.95;;;11.43;;
48285;SDS011;34102;47.716;10.296;2023-05-20T02:27:01;13.90;;;10.75;;
48285;SDS011;34102;47.716;10.296;2023-05-20T02:29:28;19.00;;;10.88;;
48285;SDS011;34102;47.716;10.296;2023-05-20T02:31:54;17.30;;;11.65;;
48285;SDS011;34102;47.716;10.296;2023-05-20T02:34:19;14.77;;;10.48;;
48285;SDS011;34102;47.716;10.296;2023-05-20T02:36:46;14.52;;;11.82;;
48285;SDS011;34102;47.716;10.296;2023-05-20T02:39:11;16.38;;;11.93;;
48285;SDS011;34102;47.716;10.296;2023-05-20T02:41:37;14.18;;;10.57;;
48285;SDS011;34102;47.716;10.296;2023-05-20T02:44:02;16.35;;;11.45;;
48285;SDS011;34102;47.716;10.296;2023-05-20T02:46:28;14.30;;;11.35;;
48285;SDS011;34102;47.716;10.296;2023-05-20T02:48:53;15.60;;;11.55;;
48285;SDS011;34102;47.716;10.296;2023-05-20T02:51:18;15.18;;;11.73;;
48285;SDS011;34102;47.716;10.296;2023-05-20T02:53:44;15.13;;;12.30;;
48285;SDS011;34102;47.716;10.296;2023-05-20T02:56:10;15.57;;;11.75;;
48285;SDS011;34102;47.716;10.296;2023-05-20T02:58:35;16.08;;;11.93;;
48285;SDS011;34102;47.716;10.296;2023-05-20T03:01:01;14.57;;;11.27;;
48285;SDS011;34102;47.716;10.296;2023-05-20T03:03:27;13.63;;;10.88;;
48285;SDS011;34102;47.716;10.296;2023-05-20T03:05:52;15.57;;;11.02;;
48285;SDS011;34102;47.716;10.296;2023-05-20T03:08:19;15.27;;;11.55;;
48285;SDS011;34102;47.716;10.296;2023-05-20T03:10:44;13.93;;;11.35;;
48285;SDS011;34102;47.716;10.296;2023-05-20T03:13:10;18.88;;;12.55;;
48285;SDS011;34102;47.716;10.296;2023-05-20T03:15:36;14.38;;;10.50;;
48285;SDS011;34102;47.716;10.296;2023-05-20T03:18:02;13.65;;;11.05;;
48285;SDS011;34102;47.716;10.296;2023-05-20T03:20:27;15.10;;;11.38;;
48285;SDS011;34102;47.716;10.296;2023-05-20T03:22:54;12.90;;;10.20;;
48285;SDS011;34102;47.716;10.296;2023-05-20T03:25:21;12.30;;;9.98;;
48285;SDS011;34102;47.716;10.296;2023-05-20T03:27:46;12.20;;;10.00;;
48285;SDS011;34102;47.716;10.296;2023-05-20T03:30:11;13.60;;;9.85;;
48285;SDS011;34102;47.716;10.296;2023-05-20T03:32:37;14.88;;;10.35;;
48285;SDS011;34102;47.716;10.296;2023-05-20T03:35:03;11.98;;;10.57;;
48285;SDS011;34102;47.716;10.296;2023-05-20T03:37:29;14.50;;;10.38;;
48285;SDS011;34102;47.716;10.296;2023-05-20T03:39:54;12.52;;;9.85;;
48285;SDS011;34102;47.716;10.296;2023-05-20T03:42:20;12.05;;;9.93;;
48285;SDS011;34102;47.716;10.296;2023-05-20T03:44:45;11.95;;;10.15;;
48285;SDS011;34102;47.716;10.296;2023-05-20T03:47:12;13.77;;;10.65;;
48285;SDS011;34102;47.716;10.296;2023-05-20T03:49:37;14.10;;;10.05;;
48285;SDS011;34102;47.716;10.296;2023-05-20T03:52:05;14.20;;;10.27;;
48285;SDS011;34102;47.716;10.296;2023-05-20T03:54:30;12.07;;;10.38;;
48285;SDS011;34102;47.716;10.296;2023-05-20T03:56:56;11.80;;;9.57;;
48285;SDS011;34102;47.716;10.296;2023-05-20T03:59:22;12.40;;;9.55;;
48285;SDS011;34102;47.716;10.296;2023-05-20T04:01:47;13.27;;;10.55;;
48285;SDS011;34102;47.716;10.296;2023-05-20T04:04:15;14.95;;;10.40;;
48285;SDS011;34102;47.716;10.296;2023-05-20T04:06:40;15.10;;;10.57;;
48285;SDS011;34102;47.716;10.296;2023-05-20T04:09:05;13.70;;;10.23;;
48285;SDS011;34102;47.716;10.296;2023-05-20T04:11:31;15.43;;;10.63;;
48285;SDS011;34102;47.716;10.296;2023-05-20T04:13:56;12.73;;;10.57;;
48285;SDS011;34102;47.716;10.296;2023-05-20T04:16:24;13.40;;;10.90;;
48285;SDS011;34102;47.716;10.296;2023-05-20T04:18:50;14.23;;;10.55;;
48285;SDS011;34102;47.716;10.296;2023-05-20T04:21:17;15.00;;;10.00;;
48285;SDS011;34102;47.716;10.296;2023-05-20T04:23:44;15.15;;;10.95;;
48285;SDS011;34102;47.716;10.296;2023-05-20T04:26:09;12.85;;;10.38;;
48285;SDS011;34102;47.716;10.296;2023-05-20T04:28:34;17.40;;;11.20;;
48285;SDS011;34102;47.716;10.296;2023-05-20T04:31:02;14.18;;;10.85;;
48285;SDS011;34102;47.716;10.296;2023-05-20T04:33:30;14.90;;;10.80;;
48285;SDS011;34102;47.716;10.296;2023-05-20T04:35:57;12.13;;;9.80;;
48285;SDS011;34102;47.716;10.296;2023-05-20T04:38:26;14.23;;;11.63;;
48285;SDS011;34102;47.716;10.296;2023-05-20T04:40:55;17.20;;;11.98;;
48285;SDS011;34102;47.716;10.296;2023-05-20T04:43:25;13.60;;;9.73;;
48285;SDS011;34102;47.716;10.296;2023-05-20T04:45:54;11.43;;;9.40;;
48285;SDS011;34102;47.716;10.296;2023-05-20T04:48:20;14.13;;;10.90;;
48285;SDS011;34102;47.716;10.296;2023-05-20T04:50:46;12.02;;;10.48;;
48285;SDS011;34102;47.716;10.296;2023-05-20T04:53:13;15.95;;;11.10;;
48285;SDS011;34102;47.716;10.296;2023-05-20T04:55:38;14.60;;;10.57;;
48285;SDS011;34102;47.716;10.296;2023-05-20T04:58:04;14.43;;;10.82;;
48285;SDS011;34102;47.716;10.296;2023-05-20T05:00:29;14.27;;;10.38;;
48285;SDS011;34102;47.716;10.296;2023-05-20T05:02:55;13.00;;;10.68;;
48285;SDS011;34102;47.716;10.296;2023-05-20T05:05:20;15.10;;;11.30;;
48285;SDS011;34102;47.716;10.296;2023-05-20T05:07:45;17.08;;;12.02;;
48285;SDS011;34102;47.716;10.296;2023-05-20T05:10:11;15.30;;;10.82;;
48285;SDS011;34102;47.716;10.296;2023-05-20T05:12:37;16.63;;;11.80;;
48285;SDS011;34102;47.716;10.296;2023-05-20T05:15:02;15.32;;;10.60;;
48285;SDS011;34102;47.716;10.296;2023-05-20T05:17:28;15.20;;;11.98;;
48285;SDS011;34102;47.716;10.296;2023-05-20T05:19:54;15.90;;;11.10;;
48285;SDS011;34102;47.716;10.296;2023-05-20T05:22:20;13.52;;;11.02;;
48285;SDS011;34102;47.716;10.296;2023-05-20T05:24:45;13.80;;;10.07;;
48285;SDS011;34102;47.716;10.296;2023-05-20T05:27:11;13.70;;;10.23;;
48285;SDS011;34102;47.716;10.296;2023-05-20T05:29:36;17.25;;;12.38;;
48285;SDS011;34102;47.716;10.296;2023-05-20T05:32:02;15.57;;;10.90;;
48285;SDS011;34102;47.716;10.296;2023-05-20T05:34:27;16.80;;;11.30;;
48285;SDS011;34102;47.716;10.296;2023-05-20T05:36:53;15.25;;;11.95;;
48285;SDS011;34102;47.716;10.296;2023-05-20T05:39:18;14.70;;;11.65;;
48285;SDS011;34102;47.716;10.296;2023-05-20T05:41:43;15.77;;;11.40;;
48285;SDS011;34102;47.716;10.296;2023-05-20T05:44:09;14.02;;;11.70;;
48285;SDS011;34102;47.716;10.296;2023-05-20T05:46:35;15.73;;;12.15;;
48285;SDS011;34102;47.716;10.296;2023-05-20T05:49:00;18.70;;;12.93;;
48285;SDS011;34102;47.716;10.296;2023-05-20T05:51:26;16.42;;;12.85;;
48285;SDS011;34102;47.716;10.296;2023-05-20T05:53:53;15.27;;;12.82;;
48285;SDS011;34102;47.716;10.296;2023-05-20T05:56:19;16.17;;;12.20;;
48285;SDS011;34102;47.716;10.296;2023-05-20T05:58:44;15.25;;;12.43;;
48285;SDS011;34102;47.716;10.296;2023-05-20T06:01:11;15.90;;;12.43;;
48285;SDS011;34102;47.716;10.296;2023-05-20T06:03:37;16.13;;;12.43;;
48285;SDS011;34102;47.716;10.296;2023-05-20T06:06:02;14.77;;;12.15;;
48285;SDS011;34102;47.716;10.296;2023-05-20T06:08:28;15.68;;;12.30;;
48285;SDS011;34102;47.716;10.296;2023-05-20T06:10:53;16.52;;;12.65;;
48285;SDS011;34102;47.716;10.296;2023-05-20T06:13:19;16.17;;;11.82;;
48285;SDS011;34102;47.716;10.296;2023-05-20T06:15:45;16.10;;;12.50;;
48285;SDS011;34102;47.716;10.296;2023-05-20T06:18:13;15.90;;;12.38;;
48285;SDS011;34102;47.716;10.296;2023-05-20T06:20:38;14.20;;;11.77;;
48285;SDS011;34102;47.716;10.296;2023-05-20T06:23:07;14.23;;;10.82;;
48285;SDS011;34102;47.716;10.296;2023-05-20T06:25:49;13.13;;;10.18;;
48285;SDS011;34102;47.716;10.296;2023-05-20T06:28:21;12.48;;;9.85;;
48285;SDS011;34102;47.716;10.296;2023-05-20T06:30:46;14.32;;;9.70;;
48285;SDS011;34102;47.716;10.296;2023-05-20T06:33:11;12.43;;;9.65;;
48285;SDS011;34102;47.716;10.296;2023-05-20T06:35:41;12.18;;;9.70;;
48285;SDS011;34102;47.716;10.296;2023-05-20T06:38:06;10.75;;;8.95;;
48285;SDS011;34102;47.716;10.296;2023-05-20T06:40:32;12.57;;;9.15;;
48285;SDS011;34102;47.716;10.296;2023-05-20T06:43:00;11.00;;;9.23;;
48285;SDS011;34102;47.716;10.296;2023-05-20T06:45:58;9.95;;;8.55;;
48285;SDS011;34102;47.716;10.296;2023-05-20T06:48:34;11.32;;;8.38;;
48285;SDS011;34102;47.716;10.296;2023-05-20T06:51:09;11.02;;;8.52;;
48285;SDS011;34102;47.716;10.296;2023-05-20T06:53:35;13.85;;;8.70;;
48285;SDS011;34102;47.716;10.296;2023-05-20T06:56:01;14.00;;;9.35;;
48285;SDS011;34102;47.716;10.296;2023-05-20T06:58:27;13.73;;;9.95;;
48285;SDS011;34102;47.716;10.296;2023-05-20T07:00:55;12.65;;;8.40;;
48285;SDS011;34102;47.716;10.296;2023-05-20T07:03:20;12.02;;;8.88;;
48285;SDS011;34102;47.716;10.296;2023-05-20T07:05:45;10.00;;;8.55;;
48285;SDS011;34102;47.716;10.296;2023-05-20T07:08:12;12.00;;;9.50;;
48285;SDS011;34102;47.716;10.296;2023-05-20T07:10:37;14.68;;;9.10;;
48285;SDS011;34102;47.716;10.296;2023-05-20T07:13:03;12.98;;;9.00;;
48285;SDS011;34102;47.716;10.296;2023-05-20T07:15:29;11.75;;;8.65;;
48285;SDS011;34102;47.716;10.296;2023-05-20T07:17:55;12.57;;;9.48;;
48285;SDS011;34102;47.716;10.296;2023-05-20T07:20:20;12.90;;;9.57;;
48285;SDS011;34102;47.716;10.296;2023-05-20T07:22:45;11.07;;;9.05;;
48285;SDS011;34102;47.716;10.296;2023-05-20T07:25:39;10.98;;;9.15;;
48285;SDS011;34102;47.716;10.296;2023-05-20T07:28:04;11.75;;;9.45;;
48285;SDS011;34102;47.716;10.296;2023-05-20T07:30:30;10.35;;;8.82;;
48285;SDS011;34102;47.716;10.296;2023-05-20T07:33:09;13.15;;;8.38;;
48285;SDS011;34102;47.716;10.296;2023-05-20T07:35:35;11.82;;;9.52;;
48285;SDS011;34102;47.716;10.296;2023-05-20T07:38:00;13.57;;;9.32;;
48285;SDS011;34102;47.716;10.296;2023-05-20T07:40:26;10.90;;;8.45;;
48285;SDS011;34102;47.716;10.296;2023-05-20T07:42:51;13.35;;;8.82;;
48285;SDS011;34102;47.716;10.296;2023-05-20T07:45:17;12.50;;;9.10;;
48285;SDS011;34102;47.716;10.296;2023-05-20T07:47:45;9.68;;;8.32;;
48285;SDS011;34102;47.716;10.296;2023-05-20T07:50:13;13.02;;;8.80;;
48285;SDS011;34102;47.716;10.296;2023-05-20T07:52:38;10.70;;;8.43;;
48285;SDS011;34102;47.716;10.296;2023-05-20T07:55:04;9.80;;;7.75;;
48285;SDS011;34102;47.716;10.296;2023-05-20T07:57:32;10.35;;;8.45;;
48285;SDS011;34102;47.716;10.296;2023-05-20T07:59:58;12.02;;;8.27;;
48285;SDS011;34102;47.716;10.296;2023-05-20T08:02:23;9.68;;;8.15;;
48285;SDS011;34102;47.716;10.296;2023-05-20T08:04:50;9.85;;;7.97;;
48285;SDS011;34102;47.716;10.296;2023-05-20T08:07:16;13.38;;;7.55;;
48285;SDS011;34102;47.716;10.296;2023-05-20T08:09:53;12.35;;;8.35;;
48285;SDS011;34102;47.716;10.296;2023-05-20T08:12:19;8.48;;;7.38;;
48285;SDS011;34102;47.716;10.296;2023-05-20T08:14:45;9.57;;;8.13;;
48285;SDS011;34102;47.716;10.296;2023-05-20T08:17:10;9.48;;;8.15;;
48285;SDS011;34102;47.716;10.296;2023-05-20T08:19:36;9.95;;;7.97;;
48285;SDS011;34102;47.716;10.296;2023-05-20T08:22:01;11.32;;;8.65;;
48285;SDS011;34102;47.716;10.296;2023-05-20T08:24:27;12.10;;;8.43;;
48285;SDS011;34102;47.716;10.296;2023-05-20T08:26:53;11.43;;;8.02;;
48285;SDS011;34102;47.716;10.296;2023-05-20T08:29:21;10.95;;;8.60;;
48285;SDS011;34102;47.716;10.296;2023-05-20T08:31:46;11.10;;;8.00;;
48285;SDS011;34102;47.716;10.296;2023-05-20T08:34:14;10.52;;;8.27;;
48285;SDS011;34102;47.716;10.296;2023-05-20T08:36:39;11.75;;;8.18;;
48285;SDS011;34102;47.716;10.296;2023-05-20T08:39:05;12.60;;;8.25;;
48285;SDS011;34102;47.716;10.296;2023-05-20T08:41:30;11.25;;;8.02;;
48285;SDS011;34102;47.716;10.296;2023-05-20T08:43:56;11.00;;;8.60;;
48285;SDS011;34102;47.716;10.296;2023-05-20T08:46:23;11.40;;;8.93;;
48285;SDS011;34102;47.716;10.296;2023-05-20T08:48:49;9.40;;;8.40;;
48285;SDS011;34102;47.716;10.296;2023-05-20T08:51:15;10.90;;;8.30;;
48285;SDS011;34102;47.716;10.296;2023-05-20T08:53:41;10.73;;;8.82;;
48285;SDS011;34102;47.716;10.296;2023-05-20T08:56:07;11.15;;;9.52;;
48285;SDS011;34102;47.716;10.296;2023-05-20T08:58:33;13.27;;;9.02;;
48285;SDS011;34102;47.716;10.296;2023-05-20T09:00:59;11.98;;;9.00;;
48285;SDS011;34102;47.716;10.296;2023-05-20T09:03:25;13.07;;;9.60;;
48285;SDS011;34102;47.716;10.296;2023-05-20T09:05:51;12.98;;;8.20;;
48285;SDS011;34102;47.716;10.296;2023-05-20T09:08:16;11.00;;;8.77;;
48285;SDS011;34102;47.716;10.296;2023-05-20T09:10:42;9.95;;;8.77;;
48285;SDS011;34102;47.716;10.296;2023-05-20T09:13:08;8.88;;;7.65;;
48285;SDS011;34102;47.716;10.296;2023-05-20T09:15:34;7.88;;;7.07;;
48285;SDS011;34102;47.716;10.296;2023-05-20T09:18:04;11.60;;;7.82;;
48285;SDS011;34102;47.716;10.296;2023-05-20T09:20:31;8.77;;;7.70;;
48285;SDS011;34102;47.716;10.296;2023-05-20T09:23:00;12.63;;;8.90;;
48285;SDS011;34102;47.716;10.296;2023-05-20T09:25:25;10.13;;;9.13;;
48285;SDS011;34102;47.716;10.296;2023-05-20T09:27:52;11.20;;;8.52;;
48285;SDS011;34102;47.716;10.296;2023-05-20T09:30:19;11.00;;;8.55;;
48285;SDS011;34102;47.716;10.296;2023-05-20T09:32:45;10.02;;;8.27;;
48285;SDS011;34102;47.716;10.296;2023-05-20T09:35:16;11.38;;;8.32;;
48285;SDS011;34102;47.716;10.296;2023-05-20T09:40:48;11.73;;;9.18;;
48285;SDS011;34102;47.716;10.296;2023-05-20T09:43:13;10.15;;;8.75;;
48285;SDS011;34102;47.716;10.296;2023-05-20T09:45:39;14.32;;;9.23;;
48285;SDS011;34102;47.716;10.296;2023-05-20T09:48:05;10.73;;;8.45;;
48285;SDS011;34102;47.716;10.296;2023-05-20T09:50:33;9.88;;;8.02;;
48285;SDS011;34102;47.716;10.296;2023-05-20T09:53:00;10.73;;;7.78;;
48285;SDS011;34102;47.716;10.296;2023-05-20T09:55:26;10.27;;;8.48;;
48285;SDS011;34102;47.716;10.296;2023-05-20T09:57:52;8.77;;;7.55;;
48285;SDS011;34102;47.716;10.296;2023-05-20T10:00:18;9.55;;;7.95;;
48285;SDS011;34102;47.716;10.296;2023-05-20T10:02:44;8.98;;;7.93;;
48285;SDS011;34102;47.716;10.296;2023-05-20T10:05:14;11.68;;;8.18;;
48285;SDS011;34102;47.716;10.296;2023-05-20T10:08:09;10.15;;;7.20;;
48285;SDS011;34102;47.716;10.296;2023-05-20T10:18:30;9.38;;;8.38;;
48285;SDS011;34102;47.716;10.296;2023-05-20T10:20:58;8.90;;;7.28;;
48285;SDS011;34102;47.716;10.296;2023-05-20T10:23:27;8.80;;;7.63;;
48285;SDS011;34102;47.716;10.296;2023-05-20T10:25:53;9.77;;;7.65;;
48285;SDS011;34102;47.716;10.296;2023-05-20T10:30:54;9.45;;;8.27;;
48285;SDS011;34102;47.716;10.296;2023-05-20T10:33:19;10.02;;;7.88;;
48285;SDS011;34102;47.716;10.296;2023-05-20T10:35:49;10.30;;;8.02;;
48285;SDS011;34102;47.716;10.296;2023-05-20T10:38:15;9.50;;;7.20;;
48285;SDS011;34102;47.716;10.296;2023-05-20T10:40:40;8.80;;;7.57;;
48285;SDS011;34102;47.716;10.296;2023-05-20T10:43:09;8.90;;;8.00;;
48285;SDS011;34102;47.716;10.296;2023-05-20T10:45:35;11.27;;;7.38;;
48285;SDS011;34102;47.716;10.296;2023-05-20T10:48:18;9.95;;;7.88;;
48285;SDS011;34102;47.716;10.296;2023-05-20T10:50:44;8.55;;;7.65;;
48285;SDS011;34102;47.716;10.296;2023-05-20T10:53:12;9.05;;;7.47;;
48285;SDS011;34102;47.716;10.296;2023-05-20T10:55:47;9.23;;;6.78;;
48285;SDS011;34102;47.716;10.296;2023-05-20T10:58:13;10.38;;;6.90;;
48285;SDS011;34102;47.716;10.296;2023-05-20T11:00:39;7.82;;;6.72;;
48285;SDS011;34102;47.716;10.296;2023-05-20T11:03:05;7.43;;;6.20;;
48285;SDS011;34102;47.716;10.296;2023-05-20T11:05:34;8.82;;;6.20;;
48285;SDS011;34102;47.716;10.296;2023-05-20T11:08:03;7.32;;;6.25;;
48285;SDS011;34102;47.716;10.296;2023-05-20T11:10:28;6.47;;;5.80;;
48285;SDS011;34102;47.716;10.296;2023-05-20T11:12:55;5.95;;;5.35;;
48285;SDS011;34102;47.716;10.296;2023-05-20T11:15:21;7.10;;;6.20;;
48285;SDS011;34102;47.716;10.296;2023-05-20T11:17:52;7.68;;;6.10;;
48285;SDS011;34102;47.716;10.296;2023-05-20T11:20:18;9.82;;;6.95;;
48285;SDS011;34102;47.716;10.296;2023-05-20T11:22:44;7.00;;;6.30;;
48285;SDS011;34102;47.716;10.296;2023-05-20T11:25:09;9.38;;;6.25;;
48285;SDS011;34102;47.716;10.296;2023-05-20T11:27:37;8.15;;;5.55;;
48285;SDS011;34102;47.716;10.296;2023-05-20T11:30:04;6.93;;;6.22;;
48285;SDS011;34102;47.716;10.296;2023-05-20T11:32:30;6.80;;;5.45;;
48285;SDS011;34102;47.716;10.296;2023-05-20T11:34:56;7.38;;;6.00;;
48285;SDS011;34102;47.716;10.296;2023-05-20T11:37:22;6.82;;;6.07;;
48285;SDS011;34102;47.716;10.296;2023-05-20T11:39:48;9.38;;;6.40;;
48285;SDS011;34102;47.716;10.296;2023-05-20T11:42:31;11.48;;;6.43;;
48285;SDS011;34102;47.716;10.296;2023-05-20T11:44:58;10.38;;;6.18;;
48285;SDS011;34102;47.716;10.296;2023-05-20T11:47:26;6.80;;;5.70;;
48285;SDS011;34102;47.716;10.296;2023-05-20T11:49:52;8.75;;;5.60;;
48285;SDS011;34102;47.716;10.296;2023-05-20T11:52:17;9.20;;;5.35;;
48285;SDS011;34102;47.716;10.296;2023-05-20T11:54:43;7.32;;;5.32;;
48285;SDS011;34102;47.716;10.296;2023-05-20T11:57:09;7.20;;;5.05;;
48285;SDS011;34102;47.716;10.296;2023-05-20T11:59:35;9.43;;;5.93;;
48285;SDS011;34102;47.716;10.296;2023-05-20T12:02:00;6.18;;;5.30;;
48285;SDS011;34102;47.716;10.296;2023-05-20T12:04:26;8.32;;;5.72;;
48285;SDS011;34102;47.716;10.296;2023-05-20T12:06:51;5.53;;;4.95;;
48285;SDS011;34102;47.716;10.296;2023-05-20T12:09:17;9.57;;;5.20;;
48285;SDS011;34102;47.716;10.296;2023-05-20T12:11:42;6.32;;;5.22;;
48285;SDS011;34102;47.716;10.296;2023-05-20T12:14:09;9.02;;;6.20;;
48285;SDS011;34102;47.716;10.296;2023-05-20T12:16:35;7.82;;;5.85;;
48285;SDS011;34102;47.716;10.296;2023-05-20T12:19:00;8.02;;;5.40;;
48285;SDS011;34102;47.716;10.296;2023-05-20T12:21:27;6.68;;;5.57;;
48285;SDS011;34102;47.716;10.296;2023-05-20T12:23:52;7.45;;;5.90;;
48285;SDS011;34102;47.716;10.296;2023-05-20T12:26:24;6.65;;;4.90;;
48285;SDS011;34102;47.716;10.296;2023-05-20T12:28:50;5.00;;;4.28;;
48285;SDS011;34102;47.716;10.296;2023-05-20T12:31:16;5.80;;;5.20;;
48285;SDS011;34102;47.716;10.296;2023-05-20T12:33:41;6.78;;;4.95;;
48285;SDS011;34102;47.716;10.296;2023-05-20T12:36:07;5.88;;;4.47;;
48285;SDS011;34102;47.716;10.296;2023-05-20T12:38:32;5.18;;;4.25;;
48285;SDS011;34102;47.716;10.296;2023-05-20T12:40:58;5.07;;;4.18;;
48285;SDS011;34102;47.716;10.296;2023-05-20T12:43:23;6.63;;;5.28;;
48285;SDS011;34102;47.716;10.296;2023-05-20T12:45:49;5.85;;;4.93;;
48285;SDS011;34102;47.716;10.296;2023-05-20T12:48:15;6.10;;;4.55;;
48285;SDS011;34102;47.716;10.296;2023-05-20T12:50:40;5.70;;;5.10;;
48285;SDS011;34102;47.716;10.296;2023-05-20T12:53:06;5.28;;;4.72;;
48285;SDS011;34102;47.716;10.296;2023-05-20T12:55:33;7.18;;;4.80;;
48285;SDS011;34102;47.716;10.296;2023-05-20T12:57:59;8.88;;;5.35;;
48285;SDS011;34102;47.716;10.296;2023-05-20T13:00:24;5.68;;;4.43;;
48285;SDS011;34102;47.716;10.296;2023-05-20T13:02:50;5.80;;;4.68;;
48285;SDS011;34102;47.716;10.296;2023-05-20T13:05:16;8.93;;;5.68;;
48285;SDS011;34102;47.716;10.296;2023-05-20T13:07:41;7.65;;;5.47;;
48285;SDS011;34102;47.716;10.296;2023-05-20T13:10:07;7.82;;;5.53;;
48285;SDS011;34102;47.716;10.296;2023-05-20T13:12:34;7.72;;;6.20;;
48285;SDS011;34102;47.716;10.296;2023-05-20T13:14:59;7.10;;;5.03;;
48285;SDS011;34102;47.716;10.296;2023-05-20T13:17:25;11.02;;;7.13;;
48285;SDS011;34102;47.716;10.296;2023-05-20T13:19:53;8.98;;;6.20;;
48285;SDS011;34102;47.716;10.296;2023-05-20T13:22:19;8.43;;;6.65;;
48285;SDS011;34102;47.716;10.296;2023-05-20T13:24:45;8.77;;;6.57;;
48285;SDS011;34102;47.716;10.296;2023-05-20T13:27:10;9.50;;;7.15;;
48285;SDS011;34102;47.716;10.296;2023-05-20T13:29:36;10.02;;;7.22;;
48285;SDS011;34102;47.716;10.296;2023-05-20T13:32:01;8.23;;;6.70;;
48285;SDS011;34102;47.716;10.296;2023-05-20T13:34:28;8.55;;;6.97;;
48285;SDS011;34102;47.716;10.296;2023-05-20T13:36:54;9.63;;;8.50;;
48285;SDS011;34102;47.716;10.296;2023-05-20T13:39:20;8.40;;;7.40;;
48285;SDS011;34102;47.716;10.296;2023-05-20T13:41:45;8.65;;;7.38;;
48285;SDS011;34102;47.716;10.296;2023-05-20T13:44:10;9.38;;;8.02;;
48285;SDS011;34102;47.716;10.296;2023-05-20T13:46:36;9.38;;;6.82;;
48285;SDS011;34102;47.716;10.296;2023-05-20T13:49:01;8.10;;;7.20;;
48285;SDS011;34102;47.716;10.296;2023-05-20T13:51:26;8.45;;;6.70;;
48285;SDS011;34102;47.716;10.296;2023-05-20T13:53:52;9.05;;;6.00;;
48285;SDS011;34102;47.716;10.296;2023-05-20T13:56:17;9.57;;;6.03;;
48285;SDS011;34102;47.716;10.296;2023-05-20T13:58:43;8.95;;;6.50;;
48285;SDS011;34102;47.716;10.296;2023-05-20T14:01:09;8.52;;;6.03;;
48285;SDS011;34102;47.716;10.296;2023-05-20T14:03:36;8.93;;;6.18;;
48285;SDS011;34102;47.716;10.296;2023-05-20T14:06:04;6.90;;;5.78;;
48285;SDS011;34102;47.716;10.296;2023-05-20T14:08:29;7.95;;;5.65;;
48285;SDS011;34102;47.716;10.296;2023-05-20T14:10:56;5.95;;;5.18;;
48285;SDS011;34102;47.716;10.296;2023-05-20T14:13:21;7.55;;;4.97;;
48285;SDS011;34102;47.716;10.296;2023-05-20T14:15:47;6.13;;;4.38;;
48285;SDS011;34102;47.716;10.296;2023-05-20T14:18:14;8.57;;;4.78;;
48285;SDS011;34102;47.716;10.296;2023-05-20T14:20:40;8.68;;;4.32;;
48285;SDS011;34102;47.716;10.296;2023-05-20T14:23:05;4.65;;;4.15;;
48285;SDS011;34102;47.716;10.296;2023-05-20T14:25:30;7.97;;;4.45;;
48285;SDS011;34102;47.716;10.296;2023-05-20T14:27:56;5.03;;;3.80;;
48285;SDS011;34102;47.716;10.296;2023-05-20T14:30:24;5.50;;;4.05;;